sensor_id;sensor_type;location;lat;lon;timestamp;P1;durP1;ratioP1;P2;durP2;ratioP2
29550;SDS011;16488;52.396;10.696;2023-10-31T00:02:17;17.80;;;6.05;;
29550;SDS011;16488;52.396;10.696;2023-10-31T00:04:43;10.55;;;4.90;;
29550;SDS011;16488;52.396;10.696;2023-10-31T00:09:35;9.90;;;5.15;;
29550;SDS011;16488;52.396;10.696;2023-10-31T00:12:01;11.80;;;5.25;;
29550;SDS011;16488;52.396;10.696;2023-10-31T00:14:27;10.15;;;5.47;;
29550;SDS011;16488;52.396;10.696;2023-10-31T00:16:53;13.32;;;5.28;;
29550;SDS011;16488;52.396;10.696;2023-10-31T00:19:19;10.32;;;5.43;;
29550;SDS011;16488;52.396;10.696;2023-10-31T00:21:45;11.75;;;5.25;;
29550;SDS011;16488;52.396;10.696;2023-10-31T00:24:11;11.80;;;5.88;;
29550;SDS011;16488;52.396;10.696;2023-10-31T00:26:37;14.60;;;7.70;;
29550;SDS011;16488;52.396;10.696;2023-10-31T00:29:03;8.95;;;5.35;;
29550;SDS011;16488;52.396;10.696;2023-10-31T00:31:29;13.15;;;5.68;;
29550;SDS011;16488;52.396;10.696;2023-10-31T00:33:55;8.15;;;5.38;;
29550;SDS011;16488;52.396;10.696;2023-10-31T00:36:22;12.75;;;6.18;;
29550;SDS011;16488;52.396;10.696;2023-10-31T00:38:48;12.43;;;6.47;;
29550;SDS011;16488;52.396;10.696;2023-10-31T00:41:14;7.68;;;5.07;;
29550;SDS011;16488;52.396;10.696;2023-10-31T00:43:40;9.27;;;5.22;;
29550;SDS011;16488;52.396;10.696;2023-10-31T00:46:06;10.68;;;6.38;;
29550;SDS011;16488;52.396;10.696;2023-10-31T00:48:32;23.40;;;6.30;;
29550;SDS011;16488;52.396;10.696;2023-10-31T00:51:01;11.77;;;5.88;;
29550;SDS011;16488;52.396;10.696;2023-10-31T00:53:28;14.00;;;6.43;;
29550;SDS011;16488;52.396;10.696;2023-10-31T00:55:54;9.35;;;5.15;;
29550;SDS011;16488;52.396;10.696;2023-10-31T00:58:20;10.40;;;5.47;;
29550;SDS011;16488;52.396;10.696;2023-10-31T01:00:46;14.43;;;5.88;;
29550;SDS011;16488;52.396;10.696;2023-10-31T01:03:12;9.38;;;5.47;;
29550;SDS011;16488;52.396;10.696;2023-10-31T01:05:38;11.85;;;5.57;;
29550;SDS011;16488;52.396;10.696;2023-10-31T01:08:04;9.73;;;5.90;;
29550;SDS011;16488;52.396;10.696;2023-10-31T01:10:30;11.85;;;5.47;;
29550;SDS011;16488;52.396;10.696;2023-10-31T01:12:57;13.70;;;5.18;;
29550;SDS011;16488;52.396;10.696;2023-10-31T01:15:23;8.95;;;5.32;;
29550;SDS011;16488;52.396;10.696;2023-10-31T01:17:49;13.70;;;5.93;;
29550;SDS011;16488;52.396;10.696;2023-10-31T01:20:15;10.38;;;5.25;;
29550;SDS011;16488;52.396;10.696;2023-10-31T01:22:40;8.73;;;5.05;;
29550;SDS011;16488;52.396;10.696;2023-10-31T01:25:06;11.30;;;5.72;;
29550;SDS011;16488;52.396;10.696;2023-10-31T01:27:33;7.78;;;4.53;;
29550;SDS011;16488;52.396;10.696;2023-10-31T01:29:59;9.32;;;4.60;;
29550;SDS011;16488;52.396;10.696;2023-10-31T01:32:25;10.80;;;4.88;;
29550;SDS011;16488;52.396;10.696;2023-10-31T01:34:51;7.57;;;4.38;;
29550;SDS011;16488;52.396;10.696;2023-10-31T01:37:17;10.35;;;4.53;;
29550;SDS011;16488;52.396;10.696;2023-10-31T01:39:44;7.47;;;5.05;;
29550;SDS011;16488;52.396;10.696;2023-10-31T01:42:13;8.13;;;4.68;;
29550;SDS011;16488;52.396;10.696;2023-10-31T01:44:39;8.15;;;4.30;;
29550;SDS011;16488;52.396;10.696;2023-10-31T01:47:05;10.70;;;4.88;;
29550;SDS011;16488;52.396;10.696;2023-10-31T01:49:32;8.45;;;4.75;;
29550;SDS011;16488;52.396;10.696;2023-10-31T01:52:01;6.57;;;4.78;;
29550;SDS011;16488;52.396;10.696;2023-10-31T01:54:28;10.98;;;4.47;;
29550;SDS011;16488;52.396;10.696;2023-10-31T01:56:55;10.57;;;5.43;;
29550;SDS011;16488;52.396;10.696;2023-10-31T01:59:23;8.40;;;4.88;;
29550;SDS011;16488;52.396;10.696;2023-10-31T02:01:50;12.27;;;4.53;;
29550;SDS011;16488;52.396;10.696;2023-10-31T02:04:16;11.13;;;4.85;;
29550;SDS011;16488;52.396;10.696;2023-10-31T02:06:42;6.88;;;3.88;;
29550;SDS011;16488;52.396;10.696;2023-10-31T02:09:08;13.70;;;4.88;;
29550;SDS011;16488;52.396;10.696;2023-10-31T02:11:34;8.20;;;4.65;;
29550;SDS011;16488;52.396;10.696;2023-10-31T02:14:00;7.93;;;4.95;;
29550;SDS011;16488;52.396;10.696;2023-10-31T02:16:26;9.80;;;4.65;;
29550;SDS011;16488;52.396;10.696;2023-10-31T02:18:52;8.30;;;4.43;;
29550;SDS011;16488;52.396;10.696;2023-10-31T02:21:19;4.70;;;3.33;;
29550;SDS011;16488;52.396;10.696;2023-10-31T02:23:56;10.65;;;4.32;;
29550;SDS011;16488;52.396;10.696;2023-10-31T02:26:22;12.27;;;3.83;;
29550;SDS011;16488;52.396;10.696;2023-10-31T02:28:48;8.15;;;3.30;;
29550;SDS011;16488;52.396;10.696;2023-10-31T02:31:14;7.18;;;3.22;;
29550;SDS011;16488;52.396;10.696;2023-10-31T02:33:40;6.50;;;3.15;;
29550;SDS011;16488;52.396;10.696;2023-10-31T02:36:06;4.47;;;3.22;;
29550;SDS011;16488;52.396;10.696;2023-10-31T02:38:32;5.20;;;2.95;;
29550;SDS011;16488;52.396;10.696;2023-10-31T02:40:59;10.95;;;2.95;;
29550;SDS011;16488;52.396;10.696;2023-10-31T02:43:24;6.88;;;3.13;;
29550;SDS011;16488;52.396;10.696;2023-10-31T02:45:51;9.73;;;2.70;;
29550;SDS011;16488;52.396;10.696;2023-10-31T02:48:17;6.53;;;3.47;;
29550;SDS011;16488;52.396;10.696;2023-10-31T02:50:43;8.60;;;3.10;;
29550;SDS011;16488;52.396;10.696;2023-10-31T02:53:09;5.38;;;2.92;;
29550;SDS011;16488;52.396;10.696;2023-10-31T02:55:35;5.22;;;2.53;;
29550;SDS011;16488;52.396;10.696;2023-10-31T02:58:01;5.93;;;3.30;;
29550;SDS011;16488;52.396;10.696;2023-10-31T03:00:27;6.38;;;3.55;;
29550;SDS011;16488;52.396;10.696;2023-10-31T03:02:54;10.75;;;3.65;;
29550;SDS011;16488;52.396;10.696;2023-10-31T03:05:20;9.18;;;3.25;;
29550;SDS011;16488;52.396;10.696;2023-10-31T03:07:46;4.05;;;3.42;;
29550;SDS011;16488;52.396;10.696;2023-10-31T03:10:12;5.25;;;2.92;;
29550;SDS011;16488;52.396;10.696;2023-10-31T03:12:38;7.18;;;3.30;;
29550;SDS011;16488;52.396;10.696;2023-10-31T03:15:04;4.38;;;3.08;;
29550;SDS011;16488;52.396;10.696;2023-10-31T03:17:30;7.82;;;3.67;;
29550;SDS011;16488;52.396;10.696;2023-10-31T03:19:56;6.68;;;3.70;;
29550;SDS011;16488;52.396;10.696;2023-10-31T03:22:22;9.35;;;3.75;;
29550;SDS011;16488;52.396;10.696;2023-10-31T03:24:48;4.47;;;3.35;;
29550;SDS011;16488;52.396;10.696;2023-10-31T03:27:14;4.85;;;3.25;;
29550;SDS011;16488;52.396;10.696;2023-10-31T03:29:40;7.90;;;3.75;;
29550;SDS011;16488;52.396;10.696;2023-10-31T03:32:06;4.95;;;3.30;;
29550;SDS011;16488;52.396;10.696;2023-10-31T03:34:32;7.43;;;3.72;;
29550;SDS011;16488;52.396;10.696;2023-10-31T03:36:58;6.28;;;3.60;;
29550;SDS011;16488;52.396;10.696;2023-10-31T03:39:24;6.22;;;3.22;;
29550;SDS011;16488;52.396;10.696;2023-10-31T03:41:50;6.05;;;3.70;;
29550;SDS011;16488;52.396;10.696;2023-10-31T03:44:16;7.38;;;3.35;;
29550;SDS011;16488;52.396;10.696;2023-10-31T03:46:42;10.77;;;4.00;;
29550;SDS011;16488;52.396;10.696;2023-10-31T03:49:08;4.22;;;3.20;;
29550;SDS011;16488;52.396;10.696;2023-10-31T03:51:34;5.78;;;3.47;;
29550;SDS011;16488;52.396;10.696;2023-10-31T03:54:00;8.50;;;3.63;;
29550;SDS011;16488;52.396;10.696;2023-10-31T03:56:26;10.27;;;3.83;;
29550;SDS011;16488;52.396;10.696;2023-10-31T03:58:52;6.05;;;3.05;;
29550;SDS011;16488;52.396;10.696;2023-10-31T04:01:18;7.18;;;3.60;;
29550;SDS011;16488;52.396;10.696;2023-10-31T04:03:44;6.63;;;4.10;;
29550;SDS011;16488;52.396;10.696;2023-10-31T04:06:10;5.32;;;3.35;;
29550;SDS011;16488;52.396;10.696;2023-10-31T04:08:35;10.18;;;3.75;;
29550;SDS011;16488;52.396;10.696;2023-10-31T04:11:01;5.95;;;4.25;;
29550;SDS011;16488;52.396;10.696;2023-10-31T04:13:27;8.23;;;3.92;;
29550;SDS011;16488;52.396;10.696;2023-10-31T04:15:53;10.38;;;4.43;;
29550;SDS011;16488;52.396;10.696;2023-10-31T04:18:19;8.18;;;4.30;;
29550;SDS011;16488;52.396;10.696;2023-10-31T04:20:45;7.43;;;4.20;;
29550;SDS011;16488;52.396;10.696;2023-10-31T04:23:12;6.00;;;3.92;;
29550;SDS011;16488;52.396;10.696;2023-10-31T04:25:38;6.60;;;4.13;;
29550;SDS011;16488;52.396;10.696;2023-10-31T04:28:04;8.27;;;4.00;;
29550;SDS011;16488;52.396;10.696;2023-10-31T04:30:30;8.30;;;5.05;;
29550;SDS011;16488;52.396;10.696;2023-10-31T04:32:56;6.68;;;4.50;;
29550;SDS011;16488;52.396;10.696;2023-10-31T04:35:22;9.95;;;5.55;;
29550;SDS011;16488;52.396;10.696;2023-10-31T04:37:48;9.52;;;5.05;;
29550;SDS011;16488;52.396;10.696;2023-10-31T04:40:14;6.82;;;4.45;;
29550;SDS011;16488;52.396;10.696;2023-10-31T04:42:40;4.57;;;3.55;;
29550;SDS011;16488;52.396;10.696;2023-10-31T04:45:06;11.32;;;3.22;;
29550;SDS011;16488;52.396;10.696;2023-10-31T04:47:32;2.75;;;2.50;;
29550;SDS011;16488;52.396;10.696;2023-10-31T04:49:58;2.88;;;2.28;;
29550;SDS011;16488;52.396;10.696;2023-10-31T04:52:24;2.90;;;2.55;;
29550;SDS011;16488;52.396;10.696;2023-10-31T04:54:51;4.50;;;3.25;;
29550;SDS011;16488;52.396;10.696;2023-10-31T04:57:17;5.13;;;3.38;;
29550;SDS011;16488;52.396;10.696;2023-10-31T04:59:43;4.68;;;3.13;;
29550;SDS011;16488;52.396;10.696;2023-10-31T05:02:09;3.70;;;3.25;;
29550;SDS011;16488;52.396;10.696;2023-10-31T05:04:38;3.13;;;2.83;;
29550;SDS011;16488;52.396;10.696;2023-10-31T05:07:07;3.00;;;2.67;;
29550;SDS011;16488;52.396;10.696;2023-10-31T05:09:33;4.15;;;3.17;;
29550;SDS011;16488;52.396;10.696;2023-10-31T05:12:00;12.90;;;3.28;;
29550;SDS011;16488;52.396;10.696;2023-10-31T05:14:26;3.72;;;2.92;;
29550;SDS011;16488;52.396;10.696;2023-10-31T05:16:52;3.88;;;2.83;;
29550;SDS011;16488;52.396;10.696;2023-10-31T05:19:18;3.53;;;2.95;;
29550;SDS011;16488;52.396;10.696;2023-10-31T05:24:10;3.75;;;2.90;;
29550;SDS011;16488;52.396;10.696;2023-10-31T05:26:36;3.60;;;3.10;;
29550;SDS011;16488;52.396;10.696;2023-10-31T05:29:02;4.22;;;3.20;;
29550;SDS011;16488;52.396;10.696;2023-10-31T05:31:28;5.13;;;2.88;;
29550;SDS011;16488;52.396;10.696;2023-10-31T05:36:21;2.63;;;2.35;;
29550;SDS011;16488;52.396;10.696;2023-10-31T05:38:47;5.63;;;2.63;;
29550;SDS011;16488;52.396;10.696;2023-10-31T05:41:14;5.20;;;2.00;;
29550;SDS011;16488;52.396;10.696;2023-10-31T05:43:40;2.17;;;1.80;;
29550;SDS011;16488;52.396;10.696;2023-10-31T05:46:06;2.38;;;1.67;;
29550;SDS011;16488;52.396;10.696;2023-10-31T05:48:36;2.60;;;1.55;;
29550;SDS011;16488;52.396;10.696;2023-10-31T05:51:03;3.13;;;1.27;;
29550;SDS011;16488;52.396;10.696;2023-10-31T05:53:29;1.33;;;1.23;;
29550;SDS011;16488;52.396;10.696;2023-10-31T05:55:58;1.67;;;1.25;;
29550;SDS011;16488;52.396;10.696;2023-10-31T05:58:24;1.90;;;1.20;;
29550;SDS011;16488;52.396;10.696;2023-10-31T06:00:50;1.17;;;1.02;;
29550;SDS011;16488;52.396;10.696;2023-10-31T06:03:16;1.15;;;1.00;;
29550;SDS011;16488;52.396;10.696;2023-10-31T06:05:42;0.68;;;0.55;;
29550;SDS011;16488;52.396;10.696;2023-10-31T06:08:10;3.75;;;0.70;;
29550;SDS011;16488;52.396;10.696;2023-10-31T06:10:36;0.85;;;0.50;;
29550;SDS011;16488;52.396;10.696;2023-10-31T06:13:02;0.50;;;0.50;;
29550;SDS011;16488;52.396;10.696;2023-10-31T06:15:28;0.75;;;0.65;;
29550;SDS011;16488;52.396;10.696;2023-10-31T06:17:54;0.57;;;0.43;;
29550;SDS011;16488;52.396;10.696;2023-10-31T06:20:20;0.60;;;0.60;;
29550;SDS011;16488;52.396;10.696;2023-10-31T06:22:46;1.10;;;0.50;;
29550;SDS011;16488;52.396;10.696;2023-10-31T06:25:12;3.10;;;0.60;;
29550;SDS011;16488;52.396;10.696;2023-10-31T06:27:38;0.47;;;0.47;;
29550;SDS011;16488;52.396;10.696;2023-10-31T06:30:04;2.97;;;0.60;;
29550;SDS011;16488;52.396;10.696;2023-10-31T06:32:30;0.43;;;0.40;;
29550;SDS011;16488;52.396;10.696;2023-10-31T06:34:56;1.55;;;0.43;;
29550;SDS011;16488;52.396;10.696;2023-10-31T06:37:22;1.55;;;0.50;;
29550;SDS011;16488;52.396;10.696;2023-10-31T06:39:48;3.70;;;0.63;;
29550;SDS011;16488;52.396;10.696;2023-10-31T06:42:14;1.33;;;0.47;;
29550;SDS011;16488;52.396;10.696;2023-10-31T06:44:40;0.40;;;0.40;;
29550;SDS011;16488;52.396;10.696;2023-10-31T06:47:06;0.75;;;0.70;;
29550;SDS011;16488;52.396;10.696;2023-10-31T06:49:32;0.80;;;0.60;;
29550;SDS011;16488;52.396;10.696;2023-10-31T06:51:58;0.93;;;0.70;;
29550;SDS011;16488;52.396;10.696;2023-10-31T06:54:25;3.15;;;0.73;;
29550;SDS011;16488;52.396;10.696;2023-10-31T06:56:51;1.67;;;0.80;;
29550;SDS011;16488;52.396;10.696;2023-10-31T06:59:17;0.82;;;0.82;;
29550;SDS011;16488;52.396;10.696;2023-10-31T07:01:43;1.33;;;0.85;;
29550;SDS011;16488;52.396;10.696;2023-10-31T07:04:11;0.77;;;0.73;;
29550;SDS011;16488;52.396;10.696;2023-10-31T07:06:38;6.22;;;0.88;;
29550;SDS011;16488;52.396;10.696;2023-10-31T07:09:04;1.85;;;0.95;;
29550;SDS011;16488;52.396;10.696;2023-10-31T07:11:30;3.67;;;0.90;;
29550;SDS011;16488;52.396;10.696;2023-10-31T07:14:00;2.40;;;1.00;;
29550;SDS011;16488;52.396;10.696;2023-10-31T07:16:27;3.50;;;1.48;;
29550;SDS011;16488;52.396;10.696;2023-10-31T07:18:53;2.08;;;1.10;;
29550;SDS011;16488;52.396;10.696;2023-10-31T07:21:19;2.85;;;1.30;;
29550;SDS011;16488;52.396;10.696;2023-10-31T07:26:11;5.70;;;1.42;;
29550;SDS011;16488;52.396;10.696;2023-10-31T07:28:37;4.28;;;1.40;;
29550;SDS011;16488;52.396;10.696;2023-10-31T07:31:03;3.63;;;1.33;;
29550;SDS011;16488;52.396;10.696;2023-10-31T07:33:29;1.83;;;1.50;;
29550;SDS011;16488;52.396;10.696;2023-10-31T07:35:55;2.85;;;2.33;;
29550;SDS011;16488;52.396;10.696;2023-10-31T07:38:21;3.15;;;2.00;;
29550;SDS011;16488;52.396;10.696;2023-10-31T07:40:47;4.68;;;1.90;;
29550;SDS011;16488;52.396;10.696;2023-10-31T07:43:14;4.13;;;1.67;;
29550;SDS011;16488;52.396;10.696;2023-10-31T07:45:40;1.52;;;1.40;;
29550;SDS011;16488;52.396;10.696;2023-10-31T07:48:06;2.03;;;1.83;;
29550;SDS011;16488;52.396;10.696;2023-10-31T07:50:32;4.03;;;2.00;;
29550;SDS011;16488;52.396;10.696;2023-10-31T07:52:58;2.85;;;2.08;;
29550;SDS011;16488;52.396;10.696;2023-10-31T07:55:24;3.03;;;1.88;;
29550;SDS011;16488;52.396;10.696;2023-10-31T07:57:50;2.97;;;2.03;;
29550;SDS011;16488;52.396;10.696;2023-10-31T08:00:16;4.63;;;1.88;;
29550;SDS011;16488;52.396;10.696;2023-10-31T08:02:42;2.78;;;1.40;;
29550;SDS011;16488;52.396;10.696;2023-10-31T08:05:09;6.85;;;1.55;;
29550;SDS011;16488;52.396;10.696;2023-10-31T08:07:35;5.50;;;1.70;;
29550;SDS011;16488;52.396;10.696;2023-10-31T08:10:02;3.28;;;1.83;;
29550;SDS011;16488;52.396;10.696;2023-10-31T08:12:29;3.05;;;1.92;;
29550;SDS011;16488;52.396;10.696;2023-10-31T08:14:55;2.90;;;2.03;;
29550;SDS011;16488;52.396;10.696;2023-10-31T08:17:21;2.85;;;1.70;;
29550;SDS011;16488;52.396;10.696;2023-10-31T08:19:47;3.97;;;1.77;;
29550;SDS011;16488;52.396;10.696;2023-10-31T08:22:13;4.40;;;2.00;;
29550;SDS011;16488;52.396;10.696;2023-10-31T08:24:39;4.53;;;1.88;;
29550;SDS011;16488;52.396;10.696;2023-10-31T08:27:05;3.28;;;1.92;;
29550;SDS011;16488;52.396;10.696;2023-10-31T08:29:33;10.63;;;2.67;;
29550;SDS011;16488;52.396;10.696;2023-10-31T08:31:59;5.38;;;2.10;;
29550;SDS011;16488;52.396;10.696;2023-10-31T08:34:24;2.17;;;1.45;;
29550;SDS011;16488;52.396;10.696;2023-10-31T08:36:51;3.92;;;2.17;;
29550;SDS011;16488;52.396;10.696;2023-10-31T08:39:18;4.30;;;1.85;;
29550;SDS011;16488;52.396;10.696;2023-10-31T08:41:53;2.05;;;1.85;;
29550;SDS011;16488;52.396;10.696;2023-10-31T08:44:19;1.88;;;1.30;;
29550;SDS011;16488;52.396;10.696;2023-10-31T08:46:46;4.90;;;1.45;;
29550;SDS011;16488;52.396;10.696;2023-10-31T08:49:12;2.28;;;1.40;;
29550;SDS011;16488;52.396;10.696;2023-10-31T08:54:04;2.60;;;1.45;;
29550;SDS011;16488;52.396;10.696;2023-10-31T08:58:56;1.67;;;1.52;;
29550;SDS011;16488;52.396;10.696;2023-10-31T09:01:22;1.52;;;0.98;;
29550;SDS011;16488;52.396;10.696;2023-10-31T09:03:48;3.20;;;1.10;;
29550;SDS011;16488;52.396;10.696;2023-10-31T09:06:14;3.47;;;0.90;;
29550;SDS011;16488;52.396;10.696;2023-10-31T09:08:40;4.65;;;1.20;;
29550;SDS011;16488;52.396;10.696;2023-10-31T09:11:06;1.25;;;0.90;;
29550;SDS011;16488;52.396;10.696;2023-10-31T09:13:32;1.13;;;0.85;;
29550;SDS011;16488;52.396;10.696;2023-10-31T09:15:58;1.88;;;1.13;;
29550;SDS011;16488;52.396;10.696;2023-10-31T09:18:25;2.00;;;0.98;;
29550;SDS011;16488;52.396;10.696;2023-10-31T09:20:51;3.45;;;1.27;;
29550;SDS011;16488;52.396;10.696;2023-10-31T09:23:17;2.42;;;0.82;;
29550;SDS011;16488;52.396;10.696;2023-10-31T09:25:43;1.02;;;0.95;;
29550;SDS011;16488;52.396;10.696;2023-10-31T09:28:09;3.50;;;1.40;;
29550;SDS011;16488;52.396;10.696;2023-10-31T09:30:35;2.97;;;0.90;;
29550;SDS011;16488;52.396;10.696;2023-10-31T09:33:01;0.73;;;0.73;;
29550;SDS011;16488;52.396;10.696;2023-10-31T09:35:27;0.95;;;0.82;;
29550;SDS011;16488;52.396;10.696;2023-10-31T09:37:54;1.17;;;0.93;;
29550;SDS011;16488;52.396;10.696;2023-10-31T09:40:20;2.03;;;1.02;;
29550;SDS011;16488;52.396;10.696;2023-10-31T09:42:46;4.25;;;0.80;;
29550;SDS011;16488;52.396;10.696;2023-10-31T09:45:13;1.38;;;1.10;;
29550;SDS011;16488;52.396;10.696;2023-10-31T09:50:06;0.70;;;0.60;;
29550;SDS011;16488;52.396;10.696;2023-10-31T09:52:38;0.80;;;0.60;;
29550;SDS011;16488;52.396;10.696;2023-10-31T09:55:04;1.42;;;0.70;;
29550;SDS011;16488;52.396;10.696;2023-10-31T09:57:31;1.00;;;0.88;;
29550;SDS011;16488;52.396;10.696;2023-10-31T09:59:57;1.83;;;0.82;;
29550;SDS011;16488;52.396;10.696;2023-10-31T10:02:23;0.55;;;0.55;;
29550;SDS011;16488;52.396;10.696;2023-10-31T10:04:50;0.63;;;0.63;;
29550;SDS011;16488;52.396;10.696;2023-10-31T10:07:16;0.60;;;0.60;;
29550;SDS011;16488;52.396;10.696;2023-10-31T10:09:43;0.90;;;0.90;;
29550;SDS011;16488;52.396;10.696;2023-10-31T10:14:35;1.67;;;0.57;;
29550;SDS011;16488;52.396;10.696;2023-10-31T10:17:01;1.30;;;0.70;;
29550;SDS011;16488;52.396;10.696;2023-10-31T10:19:27;0.75;;;0.70;;
29550;SDS011;16488;52.396;10.696;2023-10-31T10:21:54;7.03;;;1.15;;
29550;SDS011;16488;52.396;10.696;2023-10-31T10:24:21;4.05;;;0.70;;
29550;SDS011;16488;52.396;10.696;2023-10-31T10:26:47;0.88;;;0.70;;
29550;SDS011;16488;52.396;10.696;2023-10-31T10:31:43;0.70;;;0.70;;
29550;SDS011;16488;52.396;10.696;2023-10-31T10:34:15;1.38;;;0.90;;
29550;SDS011;16488;52.396;10.696;2023-10-31T10:36:43;0.70;;;0.70;;
29550;SDS011;16488;52.396;10.696;2023-10-31T10:39:11;0.50;;;0.50;;
29550;SDS011;16488;52.396;10.696;2023-10-31T10:41:37;1.35;;;1.02;;
29550;SDS011;16488;52.396;10.696;2023-10-31T10:44:06;0.80;;;0.80;;
29550;SDS011;16488;52.396;10.696;2023-10-31T10:46:33;1.63;;;0.60;;
29550;SDS011;16488;52.396;10.696;2023-10-31T10:49:00;1.90;;;1.00;;
29550;SDS011;16488;52.396;10.696;2023-10-31T10:54:09;0.80;;;0.80;;
29550;SDS011;16488;52.396;10.696;2023-10-31T10:56:42;0.45;;;0.45;;
29550;SDS011;16488;52.396;10.696;2023-10-31T10:59:18;0.90;;;0.68;;
29550;SDS011;16488;52.396;10.696;2023-10-31T11:01:46;0.40;;;0.40;;
29550;SDS011;16488;52.396;10.696;2023-10-31T11:04:13;0.63;;;0.50;;
29550;SDS011;16488;52.396;10.696;2023-10-31T11:06:39;0.40;;;0.40;;
29550;SDS011;16488;52.396;10.696;2023-10-31T11:09:06;0.40;;;0.40;;
29550;SDS011;16488;52.396;10.696;2023-10-31T11:11:33;2.05;;;0.60;;
29550;SDS011;16488;52.396;10.696;2023-10-31T11:14:00;0.50;;;0.50;;
29550;SDS011;16488;52.396;10.696;2023-10-31T11:16:30;0.45;;;0.45;;
29550;SDS011;16488;52.396;10.696;2023-10-31T11:19:00;0.93;;;0.85;;
29550;SDS011;16488;52.396;10.696;2023-10-31T11:21:31;1.48;;;0.50;;
29550;SDS011;16488;52.396;10.696;2023-10-31T11:23:57;1.48;;;0.70;;
29550;SDS011;16488;52.396;10.696;2023-10-31T11:26:27;0.40;;;0.40;;
29550;SDS011;16488;52.396;10.696;2023-10-31T11:29:04;0.52;;;0.45;;
29550;SDS011;16488;52.396;10.696;2023-10-31T11:31:30;1.08;;;0.50;;
29550;SDS011;16488;52.396;10.696;2023-10-31T11:33:57;0.50;;;0.50;;
29550;SDS011;16488;52.396;10.696;2023-10-31T11:39:11;0.85;;;0.50;;
29550;SDS011;16488;52.396;10.696;2023-10-31T11:41:38;0.60;;;0.60;;
29550;SDS011;16488;52.396;10.696;2023-10-31T11:44:04;0.60;;;0.60;;
29550;SDS011;16488;52.396;10.696;2023-10-31T11:46:30;0.50;;;0.50;;
29550;SDS011;16488;52.396;10.696;2023-10-31T11:48:56;2.60;;;0.80;;
29550;SDS011;16488;52.396;10.696;2023-10-31T11:51:24;0.73;;;0.60;;
29550;SDS011;16488;52.396;10.696;2023-10-31T11:53:51;2.95;;;1.27;;
29550;SDS011;16488;52.396;10.696;2023-10-31T11:58:43;0.60;;;0.60;;
29550;SDS011;16488;52.396;10.696;2023-10-31T12:01:10;1.30;;;0.80;;
29550;SDS011;16488;52.396;10.696;2023-10-31T12:03:39;1.08;;;0.65;;
29550;SDS011;16488;52.396;10.696;2023-10-31T12:06:06;1.88;;;1.10;;
29550;SDS011;16488;52.396;10.696;2023-10-31T12:08:36;2.33;;;0.88;;
29550;SDS011;16488;52.396;10.696;2023-10-31T12:11:23;3.58;;;0.68;;
29550;SDS011;16488;52.396;10.696;2023-10-31T12:14:01;1.27;;;0.90;;
29550;SDS011;16488;52.396;10.696;2023-10-31T12:16:33;6.18;;;1.85;;
29550;SDS011;16488;52.396;10.696;2023-10-31T12:19:00;2.85;;;1.75;;
29550;SDS011;16488;52.396;10.696;2023-10-31T12:21:40;3.92;;;1.95;;
29550;SDS011;16488;52.396;10.696;2023-10-31T12:24:07;2.97;;;1.17;;
29550;SDS011;16488;52.396;10.696;2023-10-31T12:26:34;1.13;;;1.00;;
29550;SDS011;16488;52.396;10.696;2023-10-31T12:29:10;1.95;;;0.70;;
29550;SDS011;16488;52.396;10.696;2023-10-31T12:31:43;3.92;;;0.80;;
29550;SDS011;16488;52.396;10.696;2023-10-31T12:34:13;1.48;;;0.80;;
29550;SDS011;16488;52.396;10.696;2023-10-31T12:36:39;0.65;;;0.60;;
29550;SDS011;16488;52.396;10.696;2023-10-31T12:39:06;2.45;;;0.80;;
29550;SDS011;16488;52.396;10.696;2023-10-31T12:41:34;0.80;;;0.80;;
29550;SDS011;16488;52.396;10.696;2023-10-31T12:44:00;0.98;;;0.80;;
29550;SDS011;16488;52.396;10.696;2023-10-31T12:48:52;3.42;;;0.90;;
29550;SDS011;16488;52.396;10.696;2023-10-31T12:53:48;1.90;;;0.90;;
29550;SDS011;16488;52.396;10.696;2023-10-31T12:58:59;1.52;;;1.25;;
29550;SDS011;16488;52.396;10.696;2023-10-31T13:01:25;1.02;;;0.82;;
29550;SDS011;16488;52.396;10.696;2023-10-31T13:03:51;1.80;;;0.95;;
29550;SDS011;16488;52.396;10.696;2023-10-31T13:06:18;3.03;;;1.23;;
29550;SDS011;16488;52.396;10.696;2023-10-31T13:08:45;1.38;;;1.13;;
29550;SDS011;16488;52.396;10.696;2023-10-31T13:11:13;2.22;;;1.33;;
29550;SDS011;16488;52.396;10.696;2023-10-31T13:13:39;1.13;;;0.90;;
29550;SDS011;16488;52.396;10.696;2023-10-31T13:16:05;1.27;;;1.02;;
29550;SDS011;16488;52.396;10.696;2023-10-31T13:18:31;1.00;;;0.90;;
29550;SDS011;16488;52.396;10.696;2023-10-31T13:20:58;2.45;;;0.93;;
29550;SDS011;16488;52.396;10.696;2023-10-31T13:23:24;1.83;;;1.25;;
29550;SDS011;16488;52.396;10.696;2023-10-31T13:25:50;1.50;;;0.88;;
29550;SDS011;16488;52.396;10.696;2023-10-31T13:28:16;5.47;;;1.33;;
29550;SDS011;16488;52.396;10.696;2023-10-31T13:30:42;3.08;;;0.95;;
29550;SDS011;16488;52.396;10.696;2023-10-31T13:33:08;1.10;;;1.00;;
29550;SDS011;16488;52.396;10.696;2023-10-31T13:35:34;1.20;;;0.85;;
29550;SDS011;16488;52.396;10.696;2023-10-31T13:38:01;1.45;;;1.00;;
29550;SDS011;16488;52.396;10.696;2023-10-31T13:40:27;14.80;;;1.23;;
29550;SDS011;16488;52.396;10.696;2023-10-31T13:42:53;2.00;;;1.10;;
29550;SDS011;16488;52.396;10.696;2023-10-31T13:45:19;2.40;;;1.40;;
29550;SDS011;16488;52.396;10.696;2023-10-31T13:47:45;2.47;;;1.17;;
29550;SDS011;16488;52.396;10.696;2023-10-31T13:50:11;2.13;;;1.40;;
29550;SDS011;16488;52.396;10.696;2023-10-31T13:52:37;1.75;;;1.20;;
29550;SDS011;16488;52.396;10.696;2023-10-31T13:55:04;2.40;;;1.50;;
29550;SDS011;16488;52.396;10.696;2023-10-31T13:59:56;2.95;;;1.38;;
29550;SDS011;16488;52.396;10.696;2023-10-31T14:02:25;3.08;;;1.90;;
29550;SDS011;16488;52.396;10.696;2023-10-31T14:04:53;5.47;;;1.90;;
29550;SDS011;16488;52.396;10.696;2023-10-31T14:07:22;2.08;;;1.63;;
29550;SDS011;16488;52.396;10.696;2023-10-31T14:09:49;2.42;;;1.50;;
29550;SDS011;16488;52.396;10.696;2023-10-31T14:12:15;4.43;;;2.00;;
29550;SDS011;16488;52.396;10.696;2023-10-31T14:14:41;2.22;;;1.90;;
29550;SDS011;16488;52.396;10.696;2023-10-31T14:17:07;2.97;;;1.70;;
29550;SDS011;16488;52.396;10.696;2023-10-31T14:19:33;2.60;;;1.65;;
29550;SDS011;16488;52.396;10.696;2023-10-31T14:21:59;3.28;;;2.13;;
29550;SDS011;16488;52.396;10.696;2023-10-31T14:24:26;3.08;;;2.00;;
29550;SDS011;16488;52.396;10.696;2023-10-31T14:26:52;3.00;;;1.80;;
29550;SDS011;16488;52.396;10.696;2023-10-31T14:29:18;2.95;;;1.95;;
29550;SDS011;16488;52.396;10.696;2023-10-31T14:31:44;2.88;;;2.20;;
29550;SDS011;16488;52.396;10.696;2023-10-31T14:34:10;5.60;;;2.25;;
29550;SDS011;16488;52.396;10.696;2023-10-31T14:36:36;3.67;;;2.17;;
29550;SDS011;16488;52.396;10.696;2023-10-31T14:39:02;3.28;;;2.05;;
29550;SDS011;16488;52.396;10.696;2023-10-31T14:41:28;2.67;;;1.63;;
29550;SDS011;16488;52.396;10.696;2023-10-31T14:43:58;3.58;;;2.15;;
29550;SDS011;16488;52.396;10.696;2023-10-31T14:46:24;2.20;;;1.90;;
29550;SDS011;16488;52.396;10.696;2023-10-31T14:48:50;6.32;;;2.22;;
29550;SDS011;16488;52.396;10.696;2023-10-31T14:51:16;4.18;;;2.63;;
29550;SDS011;16488;52.396;10.696;2023-10-31T14:53:42;3.20;;;2.03;;
29550;SDS011;16488;52.396;10.696;2023-10-31T14:56:08;2.47;;;1.83;;
29550;SDS011;16488;52.396;10.696;2023-10-31T14:58:34;3.00;;;1.90;;
29550;SDS011;16488;52.396;10.696;2023-10-31T15:01:00;6.70;;;2.28;;
29550;SDS011;16488;52.396;10.696;2023-10-31T15:03:26;2.80;;;1.88;;
29550;SDS011;16488;52.396;10.696;2023-10-31T15:05:52;2.92;;;1.83;;
29550;SDS011;16488;52.396;10.696;2023-10-31T15:08:18;4.15;;;2.35;;
29550;SDS011;16488;52.396;10.696;2023-10-31T15:10:44;6.78;;;3.15;;